Main page
METAR-TAF:

METAR-TAF

Airports :

Erfurt, Germany

Erfurt–Weimar Airport

latitude: 50-59N, longitude: 010-58E, elevation: 315 m

Current weather observation

The report was made 26 minutes ago, at 21:50 UTC
Wind 4 kt from the South
Temperature 14°C
Humidity 77%
Pressure 1020 hPa
Visibility 10 km or more
no clouds below 1500 m and no cumulonimbus

METAR: EDDE 192150Z 19004KT CAVOK 14/10 Q1020

Time: 00:16 (22:16 UTC)

Forecast

The report was made 5 hours and 16 minutes ago, at 17:00 UTC
Forecast valid from 19 at 18 UTC to 20 at 18 UTC
Wind 10 kt from the West
Visibility 10 km or more
no clouds below 1500 m and no cumulonimbus
Becoming
from 19 at 18 UTC to 19 at 20 UTC
Wind 5 kt from the Southwest
Becoming
from 20 at 07 UTC to 20 at 09 UTC
Wind 10 kt from the West
Becoming
from 20 at 16 UTC to 20 at 18 UTC
Wind 5 kt from the West

TAF: EDDE 191700Z 1918/2018 26010KT CAVOK BECMG 1918/1920 23005KT BECMG 2007/2009 27010KT BECMG 2016/2018 27005KT

Weather observations and forecasts of more than 4000 airports (METAR and TAF reports).

The available stations are represented by yellow and red dots on the map.

Hover mouse over dot to see the name of the station.

Then click to see weather observations and forecasts.

To change the map : click on the green buttons with a black cross to zoom in, on the green button with a dash to zoom out, or on the green arrows for adjacent maps.


METAR-TAF: